createdAt,value
2019-02-16T00:01:54.495Z,21.82
2019-02-16T00:04:14.836Z,21.68
2019-02-16T00:06:35.136Z,21.42
2019-02-16T00:08:55.442Z,22.48
2019-02-16T00:11:15.716Z,22.82
2019-02-16T00:13:36.124Z,23.18
2019-02-16T00:15:56.512Z,22.48
2019-02-16T00:18:16.837Z,23.30
2019-02-16T00:20:37.180Z,24.00
2019-02-16T00:22:57.606Z,23.22
2019-02-16T00:25:17.970Z,21.95
2019-02-16T00:27:38.251Z,23.80
2019-02-16T00:29:58.579Z,23.57
2019-02-16T00:32:18.942Z,23.18
2019-02-16T00:34:39.276Z,23.50
2019-02-16T00:36:59.572Z,24.55
2019-02-16T00:39:19.944Z,24.90
2019-02-16T00:41:40.215Z,23.77
2019-02-16T00:44:00.536Z,22.17
2019-02-16T00:46:20.896Z,23.20
2019-02-16T00:48:41.162Z,23.40
2019-02-16T00:51:01.475Z,23.98
2019-02-16T00:53:21.823Z,21.97
2019-02-16T00:55:42.162Z,23.12
2019-02-16T00:58:02.530Z,23.57
2019-02-16T01:00:22.858Z,23.55
2019-02-16T01:02:43.142Z,23.57
2019-02-16T01:05:03.717Z,21.82
2019-02-16T01:07:24.012Z,21.37
2019-02-16T01:09:44.322Z,22.27
2019-02-16T01:12:04.639Z,22.87
2019-02-16T01:14:24.919Z,24.35
2019-02-16T01:16:45.239Z,22.50
2019-02-16T01:19:05.574Z,23.12
2019-02-16T01:21:25.901Z,21.75
2019-02-16T01:23:46.222Z,22.00
2019-02-16T01:26:06.556Z,21.70
2019-02-16T01:28:26.854Z,22.85
2019-02-16T01:30:47.164Z,22.55
2019-02-16T01:33:07.469Z,21.30
2019-02-16T01:35:27.871Z,20.72
2019-02-16T01:37:48.201Z,22.37
2019-02-16T01:40:09.252Z,21.45
2019-02-16T01:42:29.626Z,20.90
2019-02-16T01:44:49.895Z,20.88
2019-02-16T01:47:10.272Z,22.35
2019-02-16T01:49:30.600Z,22.48
2019-02-16T01:51:50.991Z,22.25
2019-02-16T01:54:11.252Z,22.73
2019-02-16T01:56:31.568Z,22.37
2019-02-16T01:58:51.917Z,22.20
2019-02-16T02:01:12.307Z,21.95
2019-02-16T02:03:32.631Z,22.48
2019-02-16T02:05:52.932Z,21.77
2019-02-16T02:08:13.201Z,21.80
2019-02-16T02:10:33.708Z,21.30
2019-02-16T02:12:54.031Z,21.57
2019-02-16T02:15:14.314Z,22.98
2019-02-16T02:17:34.603Z,23.30
2019-02-16T02:19:54.920Z,23.80
2019-02-16T02:22:15.246Z,22.95
2019-02-16T02:24:35.559Z,22.20
2019-02-16T02:26:55.815Z,24.15
2019-02-16T02:29:16.074Z,22.25
2019-02-16T02:31:37.624Z,23.20
2019-02-16T02:33:58.014Z,22.70
2019-02-16T02:36:18.360Z,21.52
2019-02-16T02:38:39.645Z,21.60
2019-02-16T02:41:01.078Z,24.47
2019-02-16T02:43:21.462Z,24.00
2019-02-16T02:45:41.803Z,21.68
2019-02-16T02:48:02.126Z,21.95
2019-02-16T02:50:22.452Z,21.37
2019-02-16T02:52:42.845Z,21.62
2019-02-16T02:55:03.146Z,22.15
2019-02-16T02:57:23.548Z,23.75
2019-02-16T02:59:43.915Z,22.37
2019-02-16T03:02:04.458Z,21.90
2019-02-16T03:04:25.855Z,22.30
2019-02-16T03:06:46.235Z,23.12
2019-02-16T03:09:06.516Z,22.45
2019-02-16T03:11:28.072Z,22.70
2019-02-16T03:13:48.421Z,21.82
2019-02-16T03:16:08.764Z,23.00
2019-02-16T03:18:30.285Z,22.95
2019-02-16T03:20:50.635Z,22.45
2019-02-16T03:23:18.220Z,22.20
2019-02-16T03:25:38.610Z,22.98
2019-02-16T03:28:09.145Z,21.65
2019-02-16T03:30:55.108Z,22.15
2019-02-16T03:33:21.204Z,22.37
2019-02-16T03:35:47.379Z,22.35
2019-02-16T03:38:22.926Z,22.95
2019-02-16T03:40:45.977Z,22.10
2019-02-16T03:45:24.766Z,19.73
2019-02-16T03:47:45.103Z,20.97
2019-02-16T03:50:07.935Z,23.05
2019-02-16T03:52:27.920Z,22.65
2019-02-16T03:54:48.251Z,21.48
2019-02-16T03:57:08.528Z,20.35
2019-02-16T03:59:28.915Z,21.85
2019-02-16T04:01:49.294Z,22.52
2019-02-16T04:04:09.661Z,21.52
2019-02-16T04:06:30.032Z,21.23
2019-02-16T04:08:50.377Z,23.02
2019-02-16T04:11:10.731Z,21.80
2019-02-16T04:13:31.162Z,21.57
2019-02-16T04:15:51.433Z,21.73
2019-02-16T04:18:11.828Z,21.80
2019-02-16T04:20:32.173Z,21.05
2019-02-16T04:22:52.493Z,20.60
2019-02-16T04:25:12.762Z,22.02
2019-02-16T04:27:33.084Z,20.52
2019-02-16T04:29:53.354Z,22.25
2019-02-16T04:32:13.627Z,20.92
2019-02-16T04:34:33.967Z,20.62
2019-02-16T04:36:54.312Z,21.25
2019-02-16T04:39:14.696Z,22.30
2019-02-16T04:41:34.999Z,21.33
2019-02-16T04:43:55.379Z,21.50
2019-02-16T04:46:15.775Z,20.88
2019-02-16T04:48:36.059Z,21.30
2019-02-16T04:50:56.419Z,20.10
2019-02-16T04:53:16.867Z,19.98
2019-02-16T04:55:37.376Z,20.82
2019-02-16T04:57:57.707Z,21.10
2019-02-16T05:00:18.112Z,20.12
2019-02-16T05:02:38.512Z,20.17
2019-02-16T05:04:58.833Z,22.32
2019-02-16T05:07:19.224Z,20.57
2019-02-16T05:09:39.623Z,21.73
2019-02-16T05:12:00.001Z,21.00
2019-02-16T05:14:20.273Z,20.77
2019-02-16T05:16:40.664Z,20.65
2019-02-16T05:19:00.936Z,21.25
2019-02-16T05:21:21.295Z,20.20
2019-02-16T05:23:41.684Z,20.60
2019-02-16T05:26:02.028Z,20.20
2019-02-16T05:28:22.412Z,20.20
2019-02-16T05:30:42.696Z,20.48
2019-02-16T05:33:03.081Z,21.62
2019-02-16T05:35:23.360Z,19.87
2019-02-16T05:37:43.641Z,21.97
2019-02-16T05:40:05.648Z,20.00
2019-02-16T05:42:26.024Z,15.63
2019-02-16T05:44:46.339Z,20.20
2019-02-16T05:47:06.648Z,20.85
2019-02-16T05:49:26.938Z,20.55
2019-02-16T05:51:47.407Z,19.27
2019-02-16T05:54:07.688Z,19.27
2019-02-16T05:56:28.050Z,20.05
2019-02-16T05:58:48.355Z,20.10
2019-02-16T06:01:08.756Z,20.37
2019-02-16T06:03:29.156Z,19.65
2019-02-16T06:05:49.586Z,19.57
2019-02-16T06:08:09.895Z,19.67
2019-02-16T06:10:30.171Z,20.40
2019-02-16T06:12:50.484Z,20.32
2019-02-16T06:15:10.766Z,19.60
2019-02-16T06:17:31.162Z,18.45
2019-02-16T06:19:51.434Z,18.55
2019-02-16T06:22:11.845Z,18.77
2019-02-16T06:24:32.173Z,18.20
2019-02-16T06:26:52.458Z,17.98
2019-02-16T06:29:12.744Z,19.32
2019-02-16T06:31:33.136Z,18.48
2019-02-16T06:33:53.499Z,19.23
2019-02-16T06:36:15.463Z,19.52
2019-02-16T06:38:35.741Z,19.17
2019-02-16T06:40:56.132Z,20.23
2019-02-16T06:43:16.481Z,20.25
2019-02-16T06:45:36.900Z,19.52
2019-02-16T06:47:57.248Z,20.05
2019-02-16T06:50:17.639Z,19.17
2019-02-16T06:52:38.042Z,19.80
2019-02-16T06:54:58.362Z,19.73
2019-02-16T06:57:29.226Z,20.37
2019-02-16T06:59:49.981Z,19.87
2019-02-16T07:02:10.290Z,19.40
2019-02-16T07:04:30.618Z,20.85
2019-02-16T07:06:51.040Z,20.82
2019-02-16T07:09:11.358Z,19.90
2019-02-16T07:11:31.707Z,20.00
2019-02-16T07:13:52.038Z,20.60
2019-02-16T07:16:20.027Z,18.80
2019-02-16T07:18:42.051Z,19.45
2019-02-16T07:21:02.447Z,19.12
2019-02-16T07:23:22.926Z,19.85
2019-02-16T07:25:43.324Z,17.92
2019-02-16T07:28:03.595Z,18.57
2019-02-16T07:30:23.868Z,19.80
2019-02-16T07:32:44.305Z,19.70
2019-02-16T07:35:06.488Z,18.57
2019-02-16T07:37:26.815Z,20.25
2019-02-16T07:39:47.173Z,18.62
2019-02-16T07:42:07.606Z,18.45
2019-02-16T07:44:29.593Z,18.45
2019-02-16T07:46:51.622Z,16.93
2019-02-16T07:49:13.545Z,17.40
2019-02-16T07:51:54.229Z,17.02
2019-02-16T07:54:28.192Z,16.97
2019-02-16T07:56:56.124Z,16.65
2019-02-16T07:59:36.146Z,14.37
2019-02-16T08:02:00.644Z,14.37
2019-02-16T08:04:31.256Z,14.40
2019-02-16T08:06:52.928Z,13.07
2019-02-16T08:09:20.692Z,13.83
2019-02-16T08:11:51.152Z,12.97
2019-02-16T08:14:25.050Z,12.03
2019-02-16T08:16:52.736Z,13.60
2019-02-16T08:19:17.050Z,11.47
2019-02-16T08:21:44.867Z,12.10
2019-02-16T08:24:15.719Z,8.07
2019-02-16T08:26:37.493Z,10.03
2019-02-16T08:29:15.775Z,7.90
2019-02-16T08:31:39.962Z,5.47
2019-02-16T08:34:04.448Z,4.80
2019-02-16T08:36:26.141Z,4.40
2019-02-16T08:38:50.564Z,4.70
2019-02-16T08:41:27.619Z,4.03
2019-02-16T08:43:49.388Z,4.30
2019-02-16T08:46:13.467Z,4.23
2019-02-16T08:48:35.213Z,4.27
2019-02-16T08:51:13.445Z,4.12
2019-02-16T08:53:37.585Z,4.20
2019-02-16T08:56:14.493Z,4.10
2019-02-16T08:58:48.526Z,3.87
2019-02-16T09:01:16.184Z,4.00
2019-02-16T09:03:54.315Z,4.40
2019-02-16T09:06:25.181Z,4.03
2019-02-16T09:08:49.918Z,6.08
2019-02-16T09:11:18.072Z,7.17
2019-02-16T09:13:48.825Z,4.45
2019-02-16T09:16:10.811Z,4.33
2019-02-16T09:18:32.458Z,4.07
2019-02-16T09:21:00.341Z,3.77
2019-02-16T09:23:21.786Z,3.72
2019-02-16T09:25:43.434Z,4.00
2019-02-16T09:28:05.046Z,4.33
2019-02-16T09:30:38.859Z,3.67
2019-02-16T09:33:06.233Z,3.40
2019-02-16T09:35:30.721Z,3.70
2019-02-16T09:37:55.048Z,3.37
2019-02-16T09:40:19.666Z,3.87
2019-02-16T09:42:42.412Z,3.80
2019-02-16T09:45:09.996Z,3.47
2019-02-16T09:47:31.634Z,3.67
2019-02-16T09:49:56.632Z,3.98
2019-02-16T09:52:24.097Z,3.33
2019-02-16T09:54:57.456Z,3.52
2019-02-16T09:57:21.816Z,3.40
2019-02-16T09:59:59.921Z,3.50
2019-02-16T10:02:33.527Z,4.08
2019-02-16T10:04:54.863Z,3.27
2019-02-16T10:07:16.311Z,3.30
2019-02-16T10:09:37.703Z,3.40
2019-02-16T10:12:03.485Z,3.33
2019-02-16T10:14:24.933Z,5.97
2019-02-16T10:16:46.335Z,6.75
2019-02-16T10:19:07.797Z,4.80
2019-02-16T10:21:29.254Z,4.90
2019-02-16T10:23:50.657Z,6.47
2019-02-16T10:26:21.272Z,7.33
2019-02-16T10:28:42.676Z,8.08
2019-02-16T10:31:04.109Z,8.33
2019-02-16T10:33:28.325Z,7.80
2019-02-16T10:36:02.276Z,8.67
2019-02-16T10:38:40.156Z,8.00
2019-02-16T10:41:04.329Z,8.80
2019-02-16T10:43:28.888Z,6.93
2019-02-16T10:45:56.401Z,8.70
2019-02-16T10:48:18.011Z,8.57
2019-02-16T10:50:48.793Z,7.00
2019-02-16T10:53:13.472Z,8.20
2019-02-16T10:55:43.831Z,7.23
2019-02-16T10:58:09.910Z,8.37
2019-02-16T11:00:31.671Z,6.80
2019-02-16T11:02:59.606Z,6.90
2019-02-16T11:05:21.288Z,6.83
2019-02-16T11:07:55.118Z,7.07
2019-02-16T11:10:31.981Z,7.67
2019-02-16T11:13:02.253Z,7.47
2019-02-16T11:15:26.983Z,6.80
2019-02-16T11:18:06.935Z,5.97
2019-02-16T11:20:43.663Z,4.87
2019-02-16T11:23:08.226Z,5.10
2019-02-16T11:25:46.269Z,5.10
2019-02-16T11:28:13.821Z,4.63
2019-02-16T11:30:35.472Z,4.57
2019-02-16T11:32:59.867Z,4.77
2019-02-16T11:35:21.560Z,5.40
2019-02-16T11:37:43.163Z,4.70
2019-02-16T11:40:13.904Z,3.90
2019-02-16T11:42:38.671Z,3.47
2019-02-16T11:45:00.556Z,2.87
2019-02-16T11:47:28.175Z,3.10
2019-02-16T11:49:58.767Z,2.80
2019-02-16T11:52:20.462Z,3.10
2019-02-16T11:54:54.044Z,2.90
2019-02-16T11:57:15.727Z,3.00
2019-02-16T11:59:46.366Z,4.10
2019-02-16T12:02:09.215Z,3.50
2019-02-16T12:04:30.854Z,3.70
2019-02-16T12:06:55.201Z,2.10
2019-02-16T12:09:29.192Z,3.13
2019-02-16T12:11:53.615Z,3.60
2019-02-16T12:14:27.785Z,3.47
2019-02-16T12:16:49.501Z,3.40
2019-02-16T12:19:20.505Z,4.40
2019-02-16T12:21:42.678Z,3.60
2019-02-16T12:24:06.934Z,2.77
2019-02-16T12:26:28.258Z,3.12
2019-02-16T12:28:52.785Z,3.60
2019-02-16T12:31:14.382Z,3.60
2019-02-16T12:33:36.110Z,4.03
2019-02-16T12:36:03.816Z,3.40
2019-02-16T12:38:31.323Z,2.73
2019-02-16T12:41:09.087Z,3.03
2019-02-16T12:43:46.536Z,2.77
2019-02-16T12:46:08.218Z,3.00
2019-02-16T12:48:44.670Z,2.30
2019-02-16T12:51:06.600Z,1.90
2019-02-16T12:53:33.992Z,2.20
2019-02-16T12:55:55.668Z,2.27
2019-02-16T12:58:17.361Z,1.33
2019-02-16T13:00:38.971Z,1.80
2019-02-16T13:03:09.547Z,1.70
2019-02-16T13:05:37.172Z,1.50
2019-02-16T13:07:58.810Z,1.57
2019-02-16T13:10:23.143Z,1.63
2019-02-16T13:12:44.840Z,1.70
2019-02-16T13:15:24.328Z,1.73
2019-02-16T13:18:00.909Z,2.00
2019-02-16T13:20:22.600Z,2.10
2019-02-16T13:22:49.993Z,2.23
2019-02-16T13:25:23.882Z,1.77
2019-02-16T13:27:40.330Z,1.77
2019-02-16T13:30:01.933Z,1.00
2019-02-16T13:32:26.323Z,1.43
2019-02-16T13:34:50.861Z,1.70
2019-02-16T13:37:12.565Z,1.80
2019-02-16T13:39:42.924Z,1.70
2019-02-16T13:42:07.482Z,1.20
2019-02-16T13:44:45.071Z,1.30
2019-02-16T13:47:06.744Z,1.20
2019-02-16T13:49:28.403Z,1.40
2019-02-16T13:51:58.804Z,1.97
2019-02-16T13:54:36.783Z,1.33
2019-02-16T13:57:10.354Z,1.53
2019-02-16T13:59:34.773Z,1.70
2019-02-16T14:02:02.324Z,1.40
2019-02-16T14:34:46.953Z,2.30
2019-02-16T14:37:08.675Z,2.03
2019-02-16T14:39:30.378Z,2.10
2019-02-16T14:41:50.574Z,2.30
2019-02-16T14:44:10.627Z,2.47
2019-02-16T14:46:30.584Z,2.40
2019-02-16T14:48:50.578Z,2.00
2019-02-16T14:51:10.584Z,2.57
2019-02-16T14:53:30.576Z,2.67
2019-02-16T14:55:54.168Z,2.20
2019-02-16T14:58:12.289Z,2.60
2019-02-16T15:00:32.243Z,2.20
2019-02-16T15:02:52.247Z,3.50
2019-02-16T15:05:12.346Z,2.23
2019-02-16T15:07:32.441Z,2.53
2019-02-16T15:09:52.507Z,2.27
2019-02-16T15:12:13.140Z,2.27
2019-02-16T15:14:33.135Z,2.40
2019-02-16T15:16:53.097Z,2.50
2019-02-16T15:19:13.050Z,2.47
2019-02-16T15:21:33.017Z,2.53
2019-02-16T15:23:53.023Z,2.50
2019-02-16T15:26:12.989Z,2.70
2019-02-16T15:28:33.056Z,2.80
2019-02-16T15:30:53.010Z,2.50
2019-02-16T15:33:13.263Z,2.30
2019-02-16T15:35:33.032Z,2.87
2019-02-16T15:37:52.794Z,2.95
2019-02-16T15:40:13.073Z,3.17
2019-02-16T15:42:32.795Z,3.00
2019-02-16T15:44:52.575Z,2.70
2019-02-16T15:47:13.007Z,2.75
2019-02-16T15:49:33.262Z,2.90
2019-02-16T15:51:53.214Z,2.80
2019-02-16T15:54:13.515Z,2.90
2019-02-16T15:56:33.851Z,3.67
2019-02-16T15:58:54.522Z,3.33
2019-02-16T16:01:14.877Z,3.60
2019-02-16T16:03:35.197Z,3.10
2019-02-16T16:05:55.449Z,3.67
2019-02-16T16:08:28.848Z,2.47
2019-02-16T16:10:56.622Z,2.73
2019-02-16T16:13:18.283Z,2.80
2019-02-16T16:15:42.370Z,3.45
2019-02-16T16:18:12.234Z,3.10
2019-02-16T16:20:39.704Z,3.17
2019-02-16T16:23:10.644Z,3.60
2019-02-16T16:25:32.624Z,3.25
2019-02-16T16:27:54.524Z,3.10
2019-02-16T16:30:18.941Z,3.17
2019-02-16T16:32:40.950Z,3.12
2019-02-16T16:35:15.066Z,3.58
2019-02-16T16:37:40.052Z,4.35
2019-02-16T16:40:04.977Z,3.33
2019-02-16T16:42:42.442Z,3.95
2019-02-16T16:45:10.172Z,3.87
2019-02-16T16:47:48.330Z,3.83
2019-02-16T16:50:18.499Z,3.85
2019-02-16T16:52:33.860Z,4.78
2019-02-16T16:55:01.761Z,4.72
2019-02-16T16:57:29.360Z,5.20
2019-02-16T17:00:00.621Z,4.33
2019-02-16T17:02:28.299Z,4.85
2019-02-16T17:05:07.499Z,5.40
2019-02-16T17:07:41.302Z,5.97
2019-02-16T17:10:18.270Z,5.95
2019-02-16T17:12:49.313Z,5.95
2019-02-16T17:15:17.349Z,6.75
2019-02-16T17:17:41.886Z,6.67
2019-02-16T17:20:03.810Z,7.15
2019-02-16T17:22:38.597Z,7.83
2019-02-16T17:25:18.948Z,8.00
2019-02-16T17:27:41.021Z,8.90
2019-02-16T17:30:06.127Z,9.48
2019-02-16T17:32:30.845Z,9.63
2019-02-16T17:34:58.943Z,9.68
2019-02-16T17:37:20.928Z,8.70
2019-02-16T17:39:42.912Z,9.35
2019-02-16T17:44:38.383Z,8.63
2019-02-16T17:47:15.431Z,9.40
2019-02-16T17:49:40.463Z,10.48
2019-02-16T17:52:02.468Z,12.35
2019-02-16T17:54:30.199Z,12.28
2019-02-16T17:56:59.256Z,13.08
2019-02-16T17:59:21.159Z,12.60
2019-02-16T18:01:45.896Z,11.80
2019-02-16T18:04:13.753Z,10.85
2019-02-16T18:06:44.554Z,9.78
2019-02-16T18:09:10.078Z,9.20
2019-02-16T18:11:39.206Z,9.78
2019-02-16T18:14:07.116Z,9.85
2019-02-16T18:16:46.825Z,9.75
2019-02-16T18:19:14.805Z,10.68
2019-02-16T18:21:42.741Z,10.55
2019-02-16T18:24:04.771Z,10.32
2019-02-16T18:26:32.578Z,9.90
2019-02-16T18:29:11.049Z,10.48
2019-02-16T18:31:38.857Z,10.20
2019-02-16T18:34:17.253Z,9.93
2019-02-16T18:36:42.185Z,11.15
2019-02-16T18:39:20.556Z,10.90
2019-02-16T18:41:51.436Z,11.68
2019-02-16T18:44:13.436Z,11.80
2019-02-16T18:46:50.274Z,11.53
2019-02-16T18:49:28.884Z,11.30
2019-02-16T18:51:50.850Z,11.15
2019-02-16T18:54:18.682Z,11.88
2019-02-16T18:56:52.502Z,11.65
2019-02-16T18:59:14.532Z,12.00
2019-02-16T19:01:52.686Z,11.88
2019-02-16T19:04:14.636Z,13.98
2019-02-16T19:06:36.621Z,12.78
2019-02-16T19:09:01.341Z,12.90
2019-02-16T19:11:27.003Z,12.90
2019-02-16T19:13:58.063Z,13.00
2019-02-16T19:16:36.845Z,12.80
2019-02-16T19:19:01.522Z,12.68
2019-02-16T19:21:41.580Z,13.10
2019-02-16T19:24:03.674Z,13.18
2019-02-16T19:26:28.345Z,13.00
2019-02-16T19:29:01.171Z,11.78
2019-02-16T19:31:29.117Z,11.30
2019-02-16T19:33:53.846Z,12.33
2019-02-16T19:36:15.819Z,11.10
2019-02-16T19:38:43.628Z,11.22
2019-02-16T19:41:05.544Z,11.65
2019-02-16T19:43:42.633Z,10.93
2019-02-16T19:46:20.790Z,10.58
2019-02-16T19:48:42.797Z,11.00
2019-02-16T19:51:17.063Z,10.78
2019-02-16T19:53:55.098Z,11.25
2019-02-16T19:56:17.186Z,10.20
2019-02-16T19:58:45.217Z,10.48
2019-02-16T20:01:07.225Z,10.98
2019-02-16T20:03:31.861Z,9.90
2019-02-16T20:05:56.035Z,10.40
2019-02-16T20:08:20.149Z,10.35
2019-02-16T20:10:42.244Z,10.63
2019-02-16T20:13:13.313Z,11.33
2019-02-16T20:15:53.219Z,11.57
2019-02-16T20:18:18.292Z,11.22
2019-02-16T20:20:40.212Z,11.30
2019-02-16T20:23:02.182Z,11.30
2019-02-16T20:25:24.890Z,11.10
2019-02-16T20:27:58.650Z,11.48
2019-02-16T20:30:23.327Z,10.98
2019-02-16T20:33:03.600Z,11.30
2019-02-16T20:35:43.740Z,11.78
2019-02-16T20:38:14.739Z,10.65
2019-02-16T20:40:36.656Z,11.40
2019-02-16T20:42:58.617Z,11.00
2019-02-16T20:45:20.530Z,12.25
2019-02-16T20:47:45.072Z,12.20
2019-02-16T20:50:19.958Z,11.88
2019-02-16T20:52:50.779Z,12.30
2019-02-16T20:55:15.654Z,12.40
2019-02-16T20:57:54.027Z,13.00
2019-02-16T21:00:30.796Z,11.03
2019-02-16T21:02:58.438Z,11.30
2019-02-16T21:05:26.229Z,11.55
2019-02-16T21:07:57.284Z,10.93
2019-02-16T21:10:25.534Z,10.55
2019-02-16T21:12:57.457Z,10.88
2019-02-16T21:17:57.525Z,10.40
2019-02-16T21:20:28.497Z,9.60
2019-02-16T21:22:50.901Z,11.08
2019-02-16T21:25:21.479Z,10.65
2019-02-16T21:27:46.196Z,10.03
2019-02-16T21:30:10.728Z,10.20
2019-02-16T21:32:35.614Z,10.82
2019-02-16T21:35:06.511Z,9.63
2019-02-16T21:37:37.040Z,10.50
2019-02-16T21:40:05.145Z,11.30
2019-02-16T21:42:30.267Z,10.82
2019-02-16T21:44:57.898Z,11.20
2019-02-16T21:47:25.901Z,10.45
2019-02-16T21:49:56.432Z,10.38
2019-02-16T21:52:30.401Z,10.60
2019-02-16T21:55:07.689Z,9.93
2019-02-16T21:57:44.852Z,9.83
2019-02-16T22:00:23.567Z,9.95
2019-02-16T22:03:03.688Z,9.93
2019-02-16T22:05:27.147Z,9.90
2019-02-16T22:07:55.272Z,8.75
2019-02-16T22:10:17.283Z,10.90
2019-02-16T22:12:41.986Z,9.95
2019-02-16T22:15:02.776Z,9.43
2019-02-16T22:17:24.500Z,8.48
2019-02-16T22:19:44.786Z,9.90
2019-02-16T22:22:05.086Z,10.45
2019-02-16T22:24:25.371Z,10.53
2019-02-16T22:26:45.645Z,10.55
2019-02-16T22:29:05.937Z,11.10
2019-02-16T22:31:26.213Z,12.15
2019-02-16T22:33:46.467Z,11.45
2019-02-16T22:36:06.823Z,11.12
2019-02-16T22:38:27.095Z,10.15
2019-02-16T22:40:47.476Z,11.60
2019-02-16T22:43:07.811Z,11.12
2019-02-16T22:45:28.056Z,9.78
2019-02-16T22:47:48.381Z,11.28
2019-02-16T22:50:10.158Z,10.95
2019-02-16T22:52:30.424Z,11.40
2019-02-16T22:54:50.711Z,11.18
2019-02-16T22:57:11.071Z,11.83
2019-02-16T22:59:31.316Z,11.48
2019-02-16T23:01:51.690Z,10.93
2019-02-16T23:04:13.104Z,10.43
2019-02-16T23:06:33.447Z,10.13
2019-02-16T23:08:53.758Z,9.95
2019-02-16T23:11:14.156Z,10.28
2019-02-16T23:13:35.591Z,10.78
2019-02-16T23:15:55.957Z,9.68
2019-02-16T23:18:16.329Z,10.58
2019-02-16T23:20:37.861Z,10.00
2019-02-16T23:23:01.955Z,10.35
2019-02-16T23:25:22.328Z,10.60
2019-02-16T23:27:44.801Z,10.60
2019-02-16T23:30:10.092Z,11.08
2019-02-16T23:32:30.491Z,10.78
2019-02-16T23:34:50.814Z,9.95
2019-02-16T23:37:11.168Z,9.90
2019-02-16T23:39:31.523Z,9.88
2019-02-16T23:41:51.779Z,9.83
2019-02-16T23:44:12.084Z,9.73
2019-02-16T23:46:32.407Z,10.23
2019-02-16T23:48:52.695Z,10.13
2019-02-16T23:51:13.130Z,10.23
2019-02-16T23:53:33.433Z,9.83
2019-02-16T23:55:53.758Z,9.68
2019-02-16T23:58:14.015Z,9.63
